Latest Weather Observations for Devonport Airport

IDT60801

Issued at 3:32 pm EDT Thursday 30 March 2017 (issued every 30 minutes, with the page automatically refreshed every 10 minutes)

About weather observations | Map of weather stations | Latest weather observations for TAS | Other Formats
Station Details ID: 091126 Name: DEVONPORT AIRPORT Lat: -41.17 Lon: 146.43 Height: 8.0 m
Data from the previous 72 hours. | See also: Recent months at Devonport Airport
Date/Time
EDT
Temp
°C
App
Temp
°C
Dew
Point
°C
Rel
Hum
%
Delta-T
°C
Wind Press
QNH
hPa
Press
MSL
hPa
Rain since
9am
mm
Dir  Spd
km/h
Gust
km/h
Spd
kts
Gust
kts
30/03:30pm 18.2 13.7 4.0 39 6.7 SW 17 28 9 15 1013.6 1013.6 0.0
30/03:00pm 17.9 13.3 5.8 45 5.9 WSW 19 26 10 14 1013.4 1013.4 0.0
30/02:30pm 18.0 13.0 4.6 41 6.4 WSW 20 30 11 16 1013.4 1013.4 0.0
30/02:00pm 18.1 13.2 5.3 43 6.2 WSW 20 37 11 20 1013.3 1013.3 0.0
30/01:30pm 16.9 12.0 4.3 43 5.9 WSW 19 26 10 14 1013.6 1013.6 0.0
30/01:00pm 16.8 12.7 4.5 44 5.8 WSW 15 28 8 15 1013.7 1013.7 0.0
30/12:30pm 15.5 10.5 4.6 48 5.1 SW 20 28 11 15 1013.8 1013.8 0.0
30/12:00pm 16.3 11.6 6.2 51 4.9 SW 20 30 11 16 1013.8 1013.8 0.0
30/11:30am 15.4 10.7 5.0 50 4.9 SW 19 30 10 16 1013.8 1013.8 0.0
30/11:00am 15.5 12.3 6.8 56 4.3 WSW 13 22 7 12 1013.7 1013.7 0.0
30/10:30am 14.2 10.9 6.3 59 3.8 WNW 13 20 7 11 1013.7 1013.7 0.0
30/10:00am 13.2 9.9 6.3 63 3.3 WNW 13 17 7 9 1013.6 1013.6 0.0
30/09:30am 12.2 8.8 5.8 65 3.0 WNW 13 17 7 9 1013.2 1013.2 0.0
30/09:00am 11.4 9.3 5.7 68 2.6 NNW 6 7 3 4 1012.8 1012.8 0.4
30/08:30am 10.1 8.7 5.7 74 2.0 SSE 2 6 1 3 1012.3 1012.3 0.4
30/08:00am 8.8 5.2 5.2 78 1.6 WSW 13 15 7 8 1011.6 1011.6 0.4
30/07:30am 8.3 3.9 4.9 79 1.5 WSW 17 20 9 11 1011.2 1011.2 0.4
30/07:00am 8.6 4.3 5.4 80 1.4 WSW 17 19 9 10 1010.8 1010.8 0.4
30/06:30am 8.4 4.5 5.2 80 1.4 WSW 15 17 8 9 1010.6 1010.6 0.4
30/06:00am 9.1 5.3 5.8 80 1.5 WSW 15 17 8 9 1010.1 1010.1 0.4
30/05:30am 9.6 6.6 6.1 79 1.6 WSW 11 13 6 7 1009.6 1009.6 0.4
30/05:00am 9.7 6.4 6.6 81 1.4 W 13 15 7 8 1009.4 1009.4 0.4
30/04:30am 9.8 7.2 6.3 79 1.6 WSW 9 11 5 6 1008.9 1008.9 0.4
30/04:00am 10.5 8.0 6.6 77 1.8 WSW 9 11 5 6 1008.8 1008.8 0.4
30/03:30am 10.5 8.0 6.6 77 1.8 WSW 9 11 5 6 1008.5 1008.5 0.4
30/03:00am 10.8 8.6 6.4 74 2.1 SW 7 9 4 5 1008.6 1008.6 0.4
30/02:30am 10.5 7.6 6.3 75 2.0 WSW 11 13 6 7 1009.0 1009.0 0.4
30/02:00am 10.5 7.5 6.1 74 2.0 WSW 11 13 6 7 1008.6 1008.6 0.4
30/01:30am 10.8 8.2 6.0 72 2.2 SW 9 11 5 6 1008.4 1008.4 0.4
30/01:00am 11.7 7.6 6.2 69 2.6 W 17 20 9 11 1008.7 1008.7 0.4
30/12:30am 11.8 7.6 5.9 67 2.8 W 17 24 9 13 1008.4 1008.4 0.4
30/12:00am 11.5 7.7 6.0 69 2.6 W 15 19 8 10 1007.7 1007.7 0.4
 
Date/Time
EDT
Temp
°C
App
Temp
°C
Dew
Point
°C
Rel
Hum
%
Delta-T
°C
Wind Press
QNH
hPa
Press
MSL
hPa
Rain since
9am
mm
Dir  Spd
km/h
Gust
km/h
Spd
kts
Gust
kts
29/11:30pm 11.7 7.1 5.6 66 2.8 WSW 19 22 10 12 1007.1 1007.1 0.4
29/11:00pm 12.4 6.1 5.6 63 3.2 W 28 37 15 20 1007.6 1007.6 0.4
29/10:30pm 12.6 6.3 5.8 63 3.2 W 28 37 15 20 1006.9 1006.9 0.4
29/10:00pm 12.6 8.1 6.9 68 2.7 WNW 20 30 11 16 1006.3 1006.3 0.4
29/09:30pm 12.1 9.8 7.4 73 2.3 W 9 11 5 6 1005.8 1005.8 0.2
29/09:00pm 12.6 8.9 6.2 65 3.0 WSW 15 22 8 12 1005.8 1005.8 0.2
29/08:30pm 13.0 6.8 6.1 63 3.3 WSW 28 37 15 20 1005.5 1005.5 0.2
29/08:00pm 12.9 5.8 6.3 64 3.1 WSW 33 48 18 26 1004.5 1004.5 0.2
29/07:30pm 13.3 6.9 6.9 65 3.1 SW 30 50 16 27 1003.1 1003.1 0.2
29/07:12pm 13.6 6.9 7.4 66 3.0 SW 32 50 17 27 1002.3 1002.3 0.2
29/07:00pm 14.4 7.8 8.6 68 2.9 SW 33 44 18 24 1001.8 1001.8 0.2
29/06:30pm 17.2 12.6 14.5 84 1.6 WNW 32 41 17 22 1001.1 1001.1 0.2
29/06:11pm 16.6 9.5 14.1 85 1.4 NW 44 63 24 34 1001.0 1001.0 0.2
29/06:00pm 18.4 10.2 14.1 76 2.5 NW 50 61 27 33 1000.7 1000.7 0.2
29/05:30pm 18.6 11.6 14.3 76 2.5 NW 44 57 24 31 1000.8 1000.8 0.2
29/05:00pm 18.8 11.8 14.3 75 2.6 NW 44 57 24 31 1001.0 1001.0 0.2
29/04:30pm 19.3 12.6 14.6 74 2.7 NW 43 57 23 31 1001.1 1001.1 0.2
29/04:00pm 19.3 13.1 14.8 75 2.6 NW 41 54 22 29 1001.2 1001.2 0.2
29/03:30pm 18.4 13.9 15.3 82 1.8 NW 33 44 18 24 1001.6 1001.6 0.2
29/03:00pm 18.1 12.6 14.6 80 2.0 NW 37 46 20 25 1002.1 1002.1 0.2
29/02:38pm 17.1 11.7 14.9 87 1.3 NW 37 46 20 25 1002.2 1002.2 0.2
29/02:35pm 16.9 11.1 14.9 88 1.2 NW 39 50 21 27 1002.3 1002.3 0.2
29/02:30pm 16.8 11.1 15.2 90 0.9 WNW 39 50 21 27 1002.3 1002.3 0.2
29/02:27pm 16.9 11.3 15.6 92 0.8 WNW 39 50 21 27 1002.3 1002.3 0.2
29/02:18pm 16.5 10.0 15.2 92 0.8 NW 43 69 23 37 1002.4 1002.4 0.2
29/02:15pm 17.2 10.5 15.2 88 1.2 NW 44 69 24 37 1002.2 1002.2 0.0
29/02:09pm 18.3 11.5 14.8 80 2.0 NW 44 57 24 31 1002.3 1002.3 0.0
29/02:00pm 18.0 11.4 14.9 82 1.8 NW 43 57 23 31 1002.4 1002.4 0.0
29/01:55pm 17.3 11.6 15.1 87 1.3 NNW 39 57 21 31 1002.6 1002.6 0.0
29/01:52pm 18.3 12.9 15.0 81 1.9 NNW 37 56 20 30 1002.6 1002.6 0.0
29/01:30pm 18.3 12.0 14.6 79 2.1 NNW 41 52 22 28 1003.0 1003.0 0.0
29/01:00pm 18.6 12.3 14.5 77 2.4 NNW 41 50 22 27 1003.5 1003.5 0.0
29/12:30pm 18.6 12.2 14.3 76 2.5 NNW 41 50 22 27 1003.9 1003.9 0.0
29/12:00pm 18.1 13.0 14.8 81 1.9 NNW 35 44 19 24 1004.6 1004.6 0.0
29/11:30am 19.5 14.5 15.0 75 2.6 NNW 35 43 19 23 1005.0 1005.0 0.0
29/11:00am 19.4 14.8 15.1 76 2.5 NNW 33 41 18 22 1005.3 1005.3 0.0
29/10:30am 19.6 14.3 14.2 71 3.1 NNW 35 43 19 23 1005.7 1005.7 0.0
29/10:00am 18.5 13.3 14.4 77 2.4 NNW 35 44 19 24 1006.0 1006.0 0.0
29/09:30am 18.1 12.7 14.0 77 2.3 NNW 35 44 19 24 1006.2 1006.2 0.0
29/09:00am 17.9 12.5 13.8 77 2.3 NNW 35 46 19 25 1006.4 1006.4 0.0
29/08:30am 17.8 12.1 14.3 80 2.0 NNW 37 46 20 25 1006.6 1006.6 0.0
29/08:00am 17.6 12.4 14.5 82 1.8 NNW 35 46 19 25 1006.5 1006.5 0.0
29/07:30am 17.3 11.8 14.8 85 1.4 NNW 37 46 20 25 1006.3 1006.3 0.0
29/07:00am 17.2 12.6 14.5 84 1.6 NW 32 43 17 23 1006.4 1006.4 0.0
29/06:30am 17.6 13.0 14.7 83 1.7 NNW 32 41 17 22 1006.7 1006.7 0.0
29/06:00am 16.8 12.1 14.8 88 1.2 NNW 33 46 18 25 1007.0 1007.0 0.0
29/05:30am 17.8 12.4 13.9 78 2.2 NNW 35 44 19 24 1006.9 1006.9 0.0
29/05:00am 17.7 12.3 13.8 78 2.2 NW 35 43 19 23 1007.0 1007.0 0.0
29/04:30am 17.6 12.6 13.9 79 2.1 NW 33 43 18 23 1007.2 1007.2 0.0
29/04:00am 17.3 15.1 14.8 85 1.4 WNW 20 28 11 15 1007.4 1007.4 0.0
29/03:30am 16.3 14.3 13.8 85 1.4 W 17 20 9 11 1007.9 1007.9 0.0
29/03:00am 15.4 13.3 12.5 83 1.6 WSW 15 19 8 10 1008.2 1008.2 0.0
29/02:30am 14.9 13.6 12.4 85 1.4 W 11 13 6 7 1008.5 1008.5 0.0
29/02:00am 16.5 14.1 12.7 78 2.1 W 17 20 9 11 1008.7 1008.7 0.0
29/01:30am 17.9 14.0 13.2 74 2.6 WNW 26 35 14 19 1008.6 1008.6 0.0
29/01:00am 17.4 14.0 12.5 73 2.7 WNW 22 28 12 15 1008.8 1008.8 0.0
29/12:30am 16.8 13.8 12.7 77 2.3 WNW 20 28 11 15 1009.3 1009.3 0.0
29/12:00am 17.0 13.7 12.9 77 2.3 WNW 22 28 12 15 1009.5 1009.5 0.0
 
Date/Time
EDT
Temp
°C
App
Temp
°C
Dew
Point
°C
Rel
Hum
%
Delta-T
°C
Wind Press
QNH
hPa
Press
MSL
hPa
Rain since
9am
mm
Dir  Spd
km/h
Gust
km/h
Spd
kts
Gust
kts
28/11:30pm 16.9 12.6 12.2 74 2.6 W 26 33 14 18 1009.6 1009.6 0.0
28/11:00pm 16.7 12.1 12.3 75 2.4 W 28 33 15 18 1010.0 1010.0 0.0
28/10:30pm 17.1 12.7 11.8 71 2.9 WNW 26 32 14 17 1010.1 1010.1 0.0
28/10:00pm 17.4 12.2 12.9 75 2.5 WNW 32 37 17 20 1010.1 1010.1 0.0
28/09:30pm 17.3 13.7 11.8 70 3.0 W 22 32 12 17 1010.1 1010.1 0.0
28/09:00pm 17.0 14.3 11.7 71 2.9 W 17 20 9 11 1010.2 1010.2 0.0
28/08:30pm 17.0 13.3 11.5 70 3.0 W 22 30 12 16 1010.1 1010.1 0.0
28/08:00pm 17.2 13.0 11.0 67 3.3 W 24 30 13 16 1009.6 1009.6 0.0
28/07:30pm 18.0 12.8 11.6 66 3.5 WNW 30 37 16 20 1009.2 1009.2 0.0
28/07:00pm 18.2 12.3 11.0 63 3.9 WNW 33 43 18 23 1009.1 1009.1 0.0
28/06:30pm 18.4 11.5 10.3 59 4.3 WNW 37 46 20 25 1009.0 1009.0 0.0
28/06:00pm 18.6 12.8 12.6 68 3.4 WNW 35 41 19 22 1008.9 1008.9 0.0
28/05:30pm 19.2 14.0 12.7 66 3.6 NW 32 41 17 22 1008.8 1008.8 0.0
28/05:00pm 19.2 14.7 12.5 65 3.8 WNW 28 37 15 20 1008.8 1008.8 0.0
28/04:30pm 18.6 13.2 12.8 69 3.3 WNW 33 41 18 22 1009.0 1009.0 0.0
28/04:00pm 19.3 14.0 14.1 72 3.0 WNW 35 44 19 24 1008.8 1008.8 0.0
28/03:30pm 19.4 13.9 13.6 69 3.3 NW 35 43 19 23 1009.0 1009.0 0.0
28/03:00pm 19.2 14.4 12.9 67 3.6 NW 30 37 16 20 1009.2 1009.2 0.0
28/02:30pm 18.4 15.1 12.8 70 3.1 WNW 22 30 12 16 1009.6 1009.6 0.0
28/02:00pm 17.5 15.0 13.6 78 2.2 WNW 19 22 10 12 1009.9 1009.9 0.0
28/01:30pm 18.2 15.2 12.6 70 3.1 WNW 20 30 11 16 1010.1 1010.1 0.0
28/01:00pm 18.7 14.2 12.7 68 3.4 W 28 37 15 20 1010.3 1010.3 0.0
28/12:30pm 18.7 15.2 13.3 71 3.1 WNW 24 30 13 16 1010.8 1010.8 0.0
28/12:00pm 18.4 13.0 12.2 67 3.4 WNW 32 39 17 21 1010.9 1010.9 0.0
28/11:30am 17.5 12.0 11.8 69 3.1 W 32 39 17 21 1011.1 1011.1 0.0
28/11:00am 17.5 12.5 11.1 66 3.5 W 28 37 15 20 1011.0 1011.0 0.0
28/10:30am 17.4 13.1 12.1 71 2.9 W 26 32 14 17 1011.1 1011.1 0.0
28/10:00am 16.6 10.5 11.7 73 2.7 WNW 35 44 19 24 1010.9 1010.9 0.0
28/09:41am 16.5 11.6 11.4 72 2.8 WNW 28 43 15 23 1010.8 1010.8 0.0
28/09:30am 16.6 13.5 11.5 72 2.8 WNW 19 24 10 13 1010.9 1010.9 0.0
28/09:00am 16.4 12.4 11.8 74 2.5 W 24 32 13 17 1010.5 1010.5 5.0
28/08:30am 15.9 10.5 12.1 78 2.1 WNW 32 39 17 21 1010.4 1010.4 5.0
28/08:00am 15.2 11.7 12.2 82 1.6 W 22 28 12 15 1010.0 1010.0 5.0
28/07:30am 15.6 11.8 12.4 81 1.8 WNW 24 35 13 19 1009.8 1009.8 5.0
28/07:00am 15.5 10.8 12.1 80 1.9 W 28 35 15 19 1009.7 1009.7 5.0
28/06:30am 15.6 10.5 11.8 78 2.1 WNW 30 37 16 20 1009.4 1009.4 5.0
28/06:00am 15.6 11.3 12.0 79 2.0 WNW 26 32 14 17 1009.3 1009.3 5.0
28/05:30am 15.4 11.8 11.8 79 1.9 WNW 22 28 12 15 1009.2 1009.2 5.0
28/05:00am 15.0 12.3 11.6 80 1.8 W 17 22 9 12 1008.9 1008.9 5.0
28/04:30am 14.6 10.5 11.6 82 1.6 W 24 32 13 17 1008.8 1008.8 5.0
28/04:00am 15.1 10.4 11.9 81 1.7 W 28 39 15 21 1008.6 1008.6 5.0
28/03:30am 15.2 10.4 11.6 79 1.9 WNW 28 37 15 20 1008.7 1008.7 5.0
28/03:00am 15.4 10.5 11.2 76 2.2 WNW 28 35 15 19 1008.7 1008.7 5.0
28/02:30am 15.0 10.4 11.2 78 2.0 WNW 26 32 14 17 1008.8 1008.8 5.0
28/02:00am 14.1 11.9 10.7 80 1.8 WSW 13 20 7 11 1008.9 1008.9 5.0
28/01:30am 13.6 10.8 10.0 79 1.9 WSW 15 20 8 11 1008.8 1008.8 5.0
28/01:00am 13.7 10.4 9.6 76 2.1 W 17 20 9 11 1008.8 1008.8 5.0
28/12:30am 13.6 10.3 9.5 76 2.1 W 17 22 9 12 1008.4 1008.4 5.0
28/12:00am 14.7 10.1 9.7 72 2.6 W 24 30 13 16 1008.3 1008.3 5.0
 
Date/Time
EDT
Temp
°C
App
Temp
°C
Dew
Point
°C
Rel
Hum
%
Delta-T
°C
Wind Press
QNH
hPa
Press
MSL
hPa
Rain since
9am
mm
Dir  Spd
km/h
Gust
km/h
Spd
kts
Gust
kts
27/11:30pm 14.5 10.3 9.7 73 2.5 W 22 28 12 15 1008.2 1008.2 5.0
27/11:00pm 14.8 10.7 10.0 73 2.5 W 22 30 12 16 1008.4 1008.4 5.0
27/10:30pm 15.3 11.6 10.1 71 2.7 W 20 32 11 17 1007.9 1007.9 5.0
27/10:00pm 15.4 10.9 10.2 71 2.7 W 24 33 13 18 1007.6 1007.6 5.0
27/09:30pm 16.0 10.7 11.2 73 2.6 W 30 39 16 21 1007.2 1007.2 5.0
27/09:00pm 16.4 10.5 11.1 71 2.9 W 33 46 18 25 1006.7 1006.7 5.0
27/08:30pm 17.1 9.7 12.4 74 2.6 WNW 43 54 23 29 1006.3 1006.3 5.0
27/08:00pm 17.3 10.5 13.0 76 2.4 WNW 41 50 22 27 1005.9 1005.9 5.0
27/07:30pm 17.2 10.7 12.9 76 2.4 WNW 39 54 21 29 1005.5 1005.5 5.0
27/07:00pm 17.3 11.5 12.8 75 2.5 WNW 35 43 19 23 1005.6 1005.6 5.0
27/06:30pm 17.2 12.3 12.7 75 2.5 WNW 30 39 16 21 1005.4 1005.4 5.0
27/06:00pm 17.1 12.2 13.6 80 2.0 WNW 32 43 17 23 1005.3 1005.3 5.0
27/05:30pm 16.4 9.8 12.6 78 2.1 WNW 39 48 21 26 1004.6 1004.6 5.0
27/05:00pm 16.0 9.5 11.6 75 2.4 W 37 48 20 26 1004.2 1004.2 5.0
27/04:30pm 15.5 7.4 12.1 80 1.9 W 46 65 25 35 1004.0 1004.0 5.0
27/04:02pm 15.3 6.7 12.8 85 1.4 WNW 50 70 27 38 1004.0 1004.0 4.4
27/04:00pm 15.4 7.2 12.9 85 1.4 WNW 48 61 26 33 1003.3 1003.3 4.4
27/03:49pm 15.9 7.3 12.8 82 1.7 WNW 50 69 27 37 1003.1 1003.1 3.8

Other Formats:

Comma delimited format used in spreadsheet applications
http://www.bom.gov.au/fwo/IDT60801/IDT60801.95960.axf

JavaScript Object Notation format (JSON) in row-major order
http://www.bom.gov.au/fwo/IDT60801/IDT60801.95960.json